createdAt,value
2023-04-02T00:02:27.582Z,100725.84
2023-04-02T00:05:50.429Z,100728.50
2023-04-02T00:08:40.901Z,100739.53
2023-04-02T00:11:10.139Z,100740.78
2023-04-02T00:13:41.188Z,100745.28
2023-04-02T00:16:13.598Z,100740.69
2023-04-02T00:18:44.149Z,100745.22
2023-04-02T00:21:18.167Z,100744.88
2023-04-02T00:23:47.560Z,100750.91
2023-04-02T00:26:30.386Z,100751.53
2023-04-02T00:28:58.591Z,100764.25
2023-04-02T00:31:27.182Z,100749.22
2023-04-02T00:33:55.802Z,100761.41
2023-04-02T00:36:26.572Z,100765.41
2023-04-02T00:38:56.501Z,100756.69
2023-04-02T00:41:29.707Z,100776.97
2023-04-02T00:43:58.717Z,100771.81
2023-04-02T00:46:30.409Z,100781.16
2023-04-02T00:49:02.376Z,100781.91
2023-04-02T00:51:33.800Z,100786.19
2023-04-02T00:54:05.720Z,100783.59
2023-04-02T00:56:37.964Z,100790.28
2023-04-02T00:59:06.452Z,100793.75
2023-04-02T01:01:37.799Z,100800.81
2023-04-02T01:04:06.413Z,100793.31
2023-04-02T01:06:37.246Z,100803.84
2023-04-02T01:09:18.293Z,100797.19
2023-04-02T01:12:02.037Z,100802.66
2023-04-02T01:14:42.998Z,100807.81
2023-04-02T01:17:19.932Z,100815.06
2023-04-02T01:20:01.265Z,100820.59
2023-04-02T01:22:35.058Z,100822.69
2023-04-02T01:25:06.527Z,100826.47
2023-04-02T01:27:39.693Z,100842.63
2023-04-02T01:30:11.948Z,100837.06
2023-04-02T01:32:40.410Z,100846.28
2023-04-02T01:35:09.726Z,100849.47
2023-04-02T01:37:40.565Z,100853.44
2023-04-02T01:40:22.399Z,100849.84
2023-04-02T01:42:54.564Z,100864.59
2023-04-02T01:45:24.624Z,100856.72
2023-04-02T01:47:53.590Z,100864.59
2023-04-02T01:50:31.481Z,100870.25
2023-04-02T01:53:01.697Z,100870.63
2023-04-02T01:55:36.340Z,100878.31
2023-04-02T01:58:05.628Z,100881.19
2023-04-02T02:00:37.276Z,100882.88
2023-04-02T02:03:06.520Z,100900.69
2023-04-02T02:05:34.910Z,100894.59
2023-04-02T02:08:03.557Z,100897.28
2023-04-02T02:10:40.781Z,100912.09
2023-04-02T02:13:14.664Z,100911.34
2023-04-02T02:15:45.081Z,100915.50
2023-04-02T02:18:13.679Z,100916.41
2023-04-02T02:20:41.612Z,100923.34
2023-04-02T02:23:12.121Z,100929.59
2023-04-02T02:25:40.418Z,100930.28
2023-04-02T02:28:10.825Z,100937.56
2023-04-02T02:30:40.461Z,100936.53
2023-04-02T02:33:16.875Z,100943.41
2023-04-02T02:35:50.877Z,100949.81
2023-04-02T02:38:44.088Z,100957.38
2023-04-02T02:41:22.584Z,100957.28
2023-04-02T02:44:00.264Z,100964.47
2023-04-02T02:46:30.223Z,100969.84
2023-04-02T02:49:00.942Z,100973.25
2023-04-02T02:51:31.873Z,100975.03
2023-04-02T02:54:03.572Z,100984.50
2023-04-02T02:56:33.258Z,100981.16
2023-04-02T02:59:01.779Z,100994.69
2023-04-02T03:01:34.435Z,100995.81
2023-04-02T03:04:06.704Z,100992.34
2023-04-02T03:06:36.640Z,101005.59
2023-04-02T03:09:12.023Z,101012.75
2023-04-02T03:11:42.514Z,101018.34
2023-04-02T03:14:20.084Z,101020.66
2023-04-02T03:16:51.161Z,101022.88
2023-04-02T03:19:30.594Z,101035.13
2023-04-02T03:22:03.317Z,101031.56
2023-04-02T03:24:37.611Z,101030.94
2023-04-02T03:27:13.964Z,101038.81
2023-04-02T03:29:45.802Z,101045.34
2023-04-02T03:32:18.353Z,101045.34
2023-04-02T03:34:50.984Z,101048.91
2023-04-02T03:37:25.490Z,101059.41
2023-04-02T03:39:57.265Z,101064.66
2023-04-02T03:42:27.011Z,101069.72
2023-04-02T03:45:01.666Z,101070.31
2023-04-02T03:47:35.400Z,101074.63
2023-04-02T03:50:08.622Z,101072.09
2023-04-02T03:52:38.926Z,101080.44
2023-04-02T03:55:16.094Z,101081.28
2023-04-02T03:57:51.165Z,101082.13
2023-04-02T04:00:22.603Z,101095.84
2023-04-02T04:02:59.175Z,101096.69
2023-04-02T04:05:32.780Z,101097.78
2023-04-02T04:08:05.746Z,101103.03
2023-04-02T04:10:34.405Z,101109.31
2023-04-02T04:13:05.783Z,101109.31
2023-04-02T04:15:37.611Z,101120.31
2023-04-02T04:18:11.564Z,101120.97
2023-04-02T04:20:51.264Z,101125.94
2023-04-02T04:23:25.820Z,101142.72
2023-04-02T04:26:00.439Z,101141.97
2023-04-02T04:28:38.426Z,101146.00
2023-04-02T04:31:18.076Z,101150.97
2023-04-02T04:33:54.759Z,101147.25
2023-04-02T04:36:30.293Z,101161.56
2023-04-02T04:39:09.574Z,101163.00
2023-04-02T04:41:40.555Z,101164.19
2023-04-02T04:44:16.081Z,101171.34
2023-04-02T04:46:49.272Z,101175.66
2023-04-02T04:49:20.214Z,101184.00
2023-04-02T04:51:53.570Z,101183.81
2023-04-02T04:54:26.718Z,101189.72
2023-04-02T04:56:57.696Z,101188.97
2023-04-02T04:59:29.024Z,101197.16
2023-04-02T05:02:03.086Z,101202.56
2023-04-02T05:04:34.200Z,101203.34
2023-04-02T05:07:09.830Z,101206.44
2023-04-02T05:09:41.461Z,101214.78
2023-04-02T05:12:19.075Z,101218.53
2023-04-02T05:14:51.851Z,101224.34
2023-04-02T05:17:24.013Z,101229.63
2023-04-02T05:19:56.723Z,101245.56
2023-04-02T05:22:32.935Z,101238.94
2023-04-02T05:25:11.968Z,101246.31
2023-04-02T05:27:45.432Z,101244.25
2023-04-02T05:30:34.197Z,101248.00
2023-04-02T05:33:07.927Z,101247.16
2023-04-02T05:35:40.677Z,101269.16
2023-04-02T05:38:20.235Z,101273.91
2023-04-02T05:40:52.537Z,101262.84
2023-04-02T05:43:25.207Z,101277.03
2023-04-02T05:45:56.673Z,101272.41
2023-04-02T05:48:29.797Z,101283.69
2023-04-02T05:50:59.872Z,101278.91
2023-04-02T05:53:36.214Z,101290.09
2023-04-02T05:56:09.313Z,101286.13
2023-04-02T05:58:45.305Z,101302.75
2023-04-02T06:01:28.876Z,101299.28
2023-04-02T06:04:03.854Z,101309.44
2023-04-02T06:06:45.104Z,101308.00
2023-04-02T06:09:23.282Z,101317.03
2023-04-02T06:11:57.234Z,101314.00
2023-04-02T06:14:25.736Z,101318.72
2023-04-02T06:16:56.702Z,101327.16
2023-04-02T06:19:28.834Z,101339.47
2023-04-02T06:22:04.145Z,101327.44
2023-04-02T06:24:35.760Z,101337.03
2023-04-02T06:27:08.163Z,101342.84
2023-04-02T06:29:39.905Z,101350.75
2023-04-02T06:32:15.576Z,101345.28
2023-04-02T06:34:48.145Z,101351.06
2023-04-02T06:37:24.892Z,101350.59
2023-04-02T06:40:03.642Z,101360.19
2023-04-02T06:42:37.947Z,101359.47
2023-04-02T06:45:23.325Z,101370.66
2023-04-02T06:48:16.675Z,101370.75
2023-04-02T06:50:49.658Z,101370.53
2023-04-02T06:53:23.028Z,101377.84
2023-04-02T06:56:02.052Z,101391.38
2023-04-02T06:58:32.429Z,101388.28
2023-04-02T07:01:02.561Z,101391.91
2023-04-02T07:03:37.684Z,101391.28
2023-04-02T07:06:25.406Z,101400.69
2023-04-02T07:09:01.855Z,101398.25
2023-04-02T07:11:33.121Z,101394.16
2023-04-02T07:14:04.423Z,101403.41
2023-04-02T07:16:34.301Z,101402.25
2023-04-02T07:19:04.225Z,101410.00
2023-04-02T07:21:37.635Z,101413.75
2023-04-02T07:24:09.913Z,101403.59
2023-04-02T07:26:39.836Z,101413.94
2023-04-02T07:29:10.310Z,101412.44
2023-04-02T07:31:39.508Z,101425.34
2023-04-02T07:34:08.551Z,101419.91
2023-04-02T07:36:37.973Z,101420.44
2023-04-02T07:39:06.649Z,101434.84
2023-04-02T07:41:35.123Z,101435.91
2023-04-02T07:44:07.018Z,101426.38
2023-04-02T07:46:35.550Z,101427.66
2023-04-02T07:49:04.611Z,101438.00
2023-04-02T07:51:33.991Z,101455.06
2023-04-02T07:54:03.104Z,101454.56
2023-04-02T07:56:32.867Z,101451.09
2023-04-02T07:59:03.077Z,101464.97
2023-04-02T08:01:35.320Z,101467.44
2023-04-02T08:04:07.379Z,101475.88
2023-04-02T08:06:36.079Z,101482.72
2023-04-02T08:09:07.977Z,101483.59
2023-04-02T08:11:35.988Z,101484.34
2023-04-02T08:14:05.381Z,101490.41
2023-04-02T08:16:49.737Z,101496.41
2023-04-02T08:19:17.877Z,101490.94
2023-04-02T08:21:46.251Z,101495.53
2023-04-02T08:24:14.994Z,101495.63
2023-04-02T08:26:45.545Z,101495.84
2023-04-02T08:29:13.942Z,101503.47
2023-04-02T08:31:42.271Z,101502.66
2023-04-02T08:34:12.089Z,101505.13
2023-04-02T08:36:42.550Z,101515.19
2023-04-02T08:39:11.988Z,101515.59
2023-04-02T08:41:44.316Z,101520.88
2023-04-02T08:44:20.650Z,101525.00
2023-04-02T08:46:52.105Z,101527.97
2023-04-02T08:49:29.483Z,101537.44
2023-04-02T08:51:57.597Z,101538.41
2023-04-02T08:54:30.485Z,101550.34
2023-04-02T08:57:03.402Z,101549.31
2023-04-02T08:59:35.186Z,101549.31
2023-04-02T09:02:22.960Z,101557.16
2023-04-02T09:04:54.360Z,101574.53
2023-04-02T09:07:23.509Z,101566.63
2023-04-02T09:09:52.018Z,101574.41
2023-04-02T09:12:21.735Z,101579.31
2023-04-02T09:15:02.425Z,101588.66
2023-04-02T09:17:42.649Z,101574.06
2023-04-02T09:20:21.371Z,101575.78
2023-04-02T09:22:52.017Z,101571.84
2023-04-02T09:25:23.505Z,101573.19
2023-04-02T09:27:53.858Z,101574.91
2023-04-02T09:30:30.967Z,101585.03
2023-04-02T09:33:02.274Z,101582.09
2023-04-02T09:35:33.127Z,101582.06
2023-04-02T09:38:21.578Z,101578.56
2023-04-02T09:40:53.113Z,101584.75
2023-04-02T09:43:30.801Z,101587.78
2023-04-02T09:46:02.032Z,101596.06
2023-04-02T09:48:33.377Z,101601.09
2023-04-02T09:51:14.744Z,101614.28
2023-04-02T09:53:48.949Z,101616.81
2023-04-02T09:56:22.051Z,101612.00
2023-04-02T09:59:05.801Z,101609.25
2023-04-02T10:01:39.333Z,101614.59
2023-04-02T10:04:29.130Z,101616.41
2023-04-02T10:06:59.232Z,101630.09
2023-04-02T10:09:30.857Z,101628.22
2023-04-02T10:12:04.004Z,101640.78
2023-04-02T10:14:35.155Z,101646.06
2023-04-02T10:17:11.475Z,101646.25
2023-04-02T10:19:45.870Z,101651.63
2023-04-02T10:22:18.844Z,101650.13
2023-04-02T10:24:48.844Z,101657.13
2023-04-02T10:27:26.473Z,101645.72
2023-04-02T10:30:18.180Z,101667.53
2023-04-02T10:32:51.330Z,101666.66
2023-04-02T10:35:29.229Z,101674.72
2023-04-02T10:38:15.801Z,101668.94
2023-04-02T10:40:48.397Z,101675.03
2023-04-02T10:43:32.442Z,101678.41
2023-04-02T10:46:03.246Z,101670.44
2023-04-02T10:48:36.250Z,101673.81
2023-04-02T10:51:08.802Z,101678.88
2023-04-02T10:53:45.496Z,101685.59
2023-04-02T10:56:15.314Z,101694.13
2023-04-02T10:58:52.132Z,101700.47
2023-04-02T11:01:24.827Z,101694.88
2023-04-02T11:03:58.095Z,101692.56
2023-04-02T11:06:34.085Z,101696.47
2023-04-02T11:09:08.841Z,101697.78
2023-04-02T11:11:41.959Z,101700.28
2023-04-02T11:14:16.864Z,101711.94
2023-04-02T11:16:45.525Z,101715.31
2023-04-02T11:19:26.817Z,101723.97
2023-04-02T11:21:59.333Z,101731.81
2023-04-02T11:24:40.092Z,101728.31
2023-04-02T11:27:19.711Z,101733.94
2023-04-02T11:29:50.741Z,101736.97
2023-04-02T11:32:35.010Z,101740.28
2023-04-02T11:35:30.770Z,101744.78
2023-04-02T11:38:03.768Z,101750.75
2023-04-02T11:40:53.257Z,101760.28
2023-04-02T11:43:56.627Z,101749.19
2023-04-02T11:46:48.977Z,101744.72
2023-04-02T11:49:58.588Z,101750.59
2023-04-02T11:52:31.111Z,101744.34
2023-04-02T11:55:21.243Z,101744.19
2023-04-02T11:58:03.729Z,101754.50
2023-04-02T12:01:14.744Z,101754.63
2023-04-02T12:04:22.100Z,101763.63
2023-04-02T12:07:00.893Z,101764.00
2023-04-02T12:09:31.328Z,101764.09
2023-04-02T12:12:01.063Z,101773.22
2023-04-02T12:14:46.688Z,101771.69
2023-04-02T12:17:20.164Z,101786.50
2023-04-02T12:19:51.538Z,101785.19
2023-04-02T12:22:25.816Z,101787.59
2023-04-02T12:25:04.801Z,101784.31
2023-04-02T12:27:33.199Z,101782.47
2023-04-02T12:30:18.676Z,101785.72
2023-04-02T12:32:48.010Z,101796.63
2023-04-02T12:35:29.269Z,101794.09
2023-04-02T12:37:58.921Z,101793.09
2023-04-02T12:40:29.065Z,101797.03
2023-04-02T12:42:58.675Z,101797.84
2023-04-02T12:45:38.039Z,101798.13
2023-04-02T12:48:11.959Z,101795.75
2023-04-02T12:50:47.167Z,101800.81
2023-04-02T12:53:22.582Z,101803.88
2023-04-02T12:55:54.027Z,101803.66
2023-04-02T12:58:34.451Z,101797.38
2023-04-02T13:01:23.696Z,101804.16
2023-04-02T13:04:04.373Z,101802.69
2023-04-02T13:06:35.034Z,101806.19
2023-04-02T13:09:08.145Z,101793.56
2023-04-02T13:11:37.724Z,101800.72
2023-04-02T13:14:09.549Z,101803.19
2023-04-02T13:16:43.440Z,101802.69
2023-04-02T13:19:30.923Z,101804.03
2023-04-02T13:22:05.809Z,101807.56
2023-04-02T13:24:35.545Z,101819.13
2023-04-02T13:27:05.950Z,101813.34
2023-04-02T13:29:40.053Z,101811.50
2023-04-02T13:32:14.019Z,101819.72
2023-04-02T13:34:43.185Z,101821.06
2023-04-02T13:37:13.231Z,101820.59
2023-04-02T13:39:44.976Z,101824.69
2023-04-02T13:42:17.854Z,101823.00
2023-04-02T13:44:48.063Z,101820.09
2023-04-02T13:47:25.766Z,101827.09
2023-04-02T13:49:54.703Z,101835.41
2023-04-02T13:52:24.458Z,101831.31
2023-04-02T13:54:58.805Z,101829.06
2023-04-02T13:57:30.387Z,101835.78
2023-04-02T13:59:59.542Z,101835.06
2023-04-02T14:02:30.740Z,101844.66
2023-04-02T14:05:12.137Z,101839.16
2023-04-02T14:07:55.718Z,101834.38
2023-04-02T14:10:41.772Z,101831.69
2023-04-02T14:13:21.126Z,101847.53
2023-04-02T14:16:07.436Z,101838.94
2023-04-02T14:19:13.490Z,101851.59
2023-04-02T14:21:53.629Z,101850.38
2023-04-02T14:24:26.002Z,101854.59
2023-04-02T14:27:07.559Z,101854.84
2023-04-02T14:29:41.452Z,101857.56
2023-04-02T14:32:18.664Z,101852.28
2023-04-02T14:34:55.311Z,101864.19
2023-04-02T14:37:29.842Z,101873.72
2023-04-02T14:40:07.636Z,101872.06
2023-04-02T14:42:42.496Z,101875.53
2023-04-02T14:45:15.973Z,101871.78
2023-04-02T14:47:47.910Z,101869.97
2023-04-02T14:50:21.765Z,101880.22
2023-04-02T14:52:55.774Z,101888.03
2023-04-02T14:55:32.963Z,101889.38
2023-04-02T14:58:07.722Z,101885.75
2023-04-02T15:00:46.115Z,101885.88
2023-04-02T15:03:21.037Z,101886.13
2023-04-02T15:05:57.381Z,101889.47
2023-04-02T15:08:28.063Z,101888.13
2023-04-02T15:11:04.969Z,101891.44
2023-04-02T15:13:38.590Z,101889.72
2023-04-02T15:16:11.593Z,101899.38
2023-04-02T15:18:42.715Z,101905.78
2023-04-02T15:21:49.761Z,101910.06
2023-04-02T15:24:34.815Z,101925.66
2023-04-02T15:27:21.897Z,101917.88
2023-04-02T15:29:57.725Z,101924.56
2023-04-02T15:32:32.790Z,101932.09
2023-04-02T15:35:09.586Z,101931.91
2023-04-02T15:37:45.567Z,101938.16
2023-04-02T15:40:27.026Z,101936.59
2023-04-02T15:42:59.939Z,101926.38
2023-04-02T15:45:32.372Z,101934.31
2023-04-02T15:48:24.346Z,101949.22
2023-04-02T15:51:18.083Z,101947.91
2023-04-02T15:53:57.183Z,101949.91
2023-04-02T15:56:39.007Z,101963.94
2023-04-02T15:59:32.249Z,101962.75
2023-04-02T16:02:09.064Z,101959.69
2023-04-02T16:04:47.294Z,101958.78
2023-04-02T16:07:29.508Z,101966.41
2023-04-02T16:10:06.933Z,101980.66
2023-04-02T16:12:37.272Z,101988.69
2023-04-02T16:15:15.783Z,101986.00
2023-04-02T16:17:52.829Z,101989.44
2023-04-02T16:20:25.252Z,101992.81
2023-04-02T16:23:00.960Z,102001.63
2023-04-02T16:25:37.922Z,101992.69
2023-04-02T16:28:18.457Z,102006.81
2023-04-02T16:30:51.872Z,102009.91
2023-04-02T16:33:31.999Z,102020.41
2023-04-02T16:36:08.706Z,102022.34
2023-04-02T16:38:53.578Z,102024.78
2023-04-02T16:41:29.308Z,102029.34
2023-04-02T16:44:04.923Z,102038.16
2023-04-02T16:46:42.438Z,102032.50
2023-04-02T16:49:22.430Z,102039.69
2023-04-02T16:52:02.040Z,102034.34
2023-04-02T16:54:33.234Z,102040.97
2023-04-02T16:57:21.608Z,102054.97
2023-04-02T16:59:57.588Z,102055.06
2023-04-02T17:02:36.070Z,102064.97
2023-04-02T17:05:10.793Z,102069.38
2023-04-02T17:07:46.212Z,102064.44
2023-04-02T17:10:30.084Z,102070.75
2023-04-02T17:13:20.709Z,102078.41
2023-04-02T17:15:53.992Z,102076.81
2023-04-02T17:18:27.131Z,102077.56
2023-04-02T17:20:55.397Z,102075.25
2023-04-02T17:23:24.777Z,102087.72
2023-04-02T17:25:57.141Z,102096.94
2023-04-02T17:28:29.592Z,102091.84
2023-04-02T17:31:00.445Z,102102.34
2023-04-02T17:33:30.297Z,102098.00
2023-04-02T17:36:13.517Z,102110.94
2023-04-02T17:38:46.259Z,102119.97
2023-04-02T17:41:22.641Z,102114.44
2023-04-02T17:43:56.750Z,102126.00
2023-04-02T17:46:40.069Z,102131.72
2023-04-02T17:49:16.397Z,102131.19
2023-04-02T17:51:52.558Z,102136.06
2023-04-02T17:54:30.862Z,102138.88
2023-04-02T17:57:11.872Z,102138.16
2023-04-02T17:59:57.405Z,102144.53
2023-04-02T18:02:36.898Z,102157.59
2023-04-02T18:05:14.111Z,102164.56
2023-04-02T18:07:55.570Z,102166.00
2023-04-02T18:10:27.622Z,102166.88
2023-04-02T18:13:01.025Z,102166.47
2023-04-02T18:15:44.927Z,102173.94
2023-04-02T18:18:23.931Z,102170.69
2023-04-02T18:20:59.052Z,102177.81
2023-04-02T18:23:39.741Z,102176.28
2023-04-02T18:26:14.320Z,102188.69
2023-04-02T18:28:49.834Z,102182.03
2023-04-02T18:31:31.121Z,102187.75
2023-04-02T18:34:26.075Z,102194.97
2023-04-02T18:37:07.701Z,102199.81
2023-04-02T18:39:46.790Z,102200.75
2023-04-02T18:42:23.697Z,102206.34
2023-04-02T18:45:00.445Z,102215.44
2023-04-02T18:47:36.594Z,102214.66
2023-04-02T18:50:17.803Z,102219.00
2023-04-02T18:52:47.988Z,102223.66
2023-04-02T18:55:17.403Z,102232.78
2023-04-02T18:57:50.127Z,102235.56
2023-04-02T19:00:36.951Z,102241.81
2023-04-02T19:03:16.559Z,102241.41
2023-04-02T19:05:49.879Z,102248.53
2023-04-02T19:08:21.744Z,102253.78
2023-04-02T19:10:54.346Z,102255.13
2023-04-02T19:13:22.827Z,102255.22
2023-04-02T19:16:04.770Z,102273.84
2023-04-02T19:18:42.320Z,102268.72
2023-04-02T19:21:20.436Z,102274.84
2023-04-02T19:24:02.077Z,102281.06
2023-04-02T19:26:34.770Z,102278.44
2023-04-02T19:29:13.536Z,102290.97
2023-04-02T19:31:50.571Z,102283.34
2023-04-02T19:34:25.922Z,102288.75
2023-04-02T19:36:58.007Z,102293.28
2023-04-02T19:39:57.991Z,102305.72
2023-04-02T19:42:43.235Z,102303.28
2023-04-02T19:45:34.171Z,102302.66
2023-04-02T19:48:08.765Z,102305.44
2023-04-02T19:50:39.627Z,102305.47
2023-04-02T19:53:13.910Z,102306.47
2023-04-02T19:55:44.136Z,102320.66
2023-04-02T19:58:20.115Z,102315.41
2023-04-02T20:00:50.038Z,102322.66
2023-04-02T20:03:19.601Z,102318.25
2023-04-02T20:05:49.797Z,102321.88
2023-04-02T20:08:18.213Z,102325.06
2023-04-02T20:10:47.286Z,102332.31
2023-04-02T20:13:19.404Z,102332.63
2023-04-02T20:15:51.424Z,102331.13
2023-04-02T20:18:21.343Z,102334.72
2023-04-02T20:20:51.806Z,102334.94
2023-04-02T20:23:20.122Z,102343.06
2023-04-02T20:25:52.761Z,102344.75
2023-04-02T20:28:20.838Z,102341.53
2023-04-02T20:30:50.226Z,102348.56
2023-04-02T20:33:19.065Z,102359.00
2023-04-02T20:35:47.320Z,102365.31
2023-04-02T20:38:17.015Z,102364.56
2023-04-02T20:40:46.344Z,102364.75
2023-04-02T20:43:14.210Z,102382.28
2023-04-02T20:45:42.212Z,102376.13
2023-04-02T20:48:10.312Z,102377.88
2023-04-02T20:50:38.715Z,102387.41
2023-04-02T20:53:07.149Z,102385.97
2023-04-02T20:55:36.391Z,102390.56
2023-04-02T20:58:04.385Z,102396.81
2023-04-02T21:00:32.364Z,102400.56
2023-04-02T21:03:00.737Z,102402.31
2023-04-02T21:05:28.719Z,102402.38
2023-04-02T21:07:56.927Z,102402.44
2023-04-02T21:10:25.063Z,102409.66
2023-04-02T21:12:54.735Z,102412.38
2023-04-02T21:15:22.711Z,102414.47
2023-04-02T21:17:50.714Z,102413.47
2023-04-02T21:20:18.849Z,102414.47
2023-04-02T21:22:46.860Z,102411.84
2023-04-02T21:25:14.943Z,102416.28
2023-04-02T21:27:42.791Z,102420.00
2023-04-02T21:30:13.322Z,102419.09
2023-04-02T21:32:41.228Z,102412.22
2023-04-02T21:35:10.076Z,102420.16
2023-04-02T21:37:38.016Z,102424.56
2023-04-02T21:40:07.036Z,102427.13
2023-04-02T21:42:34.844Z,102422.00
2023-04-02T21:45:02.829Z,102428.44
2023-04-02T21:47:32.224Z,102430.03
2023-04-02T21:50:00.217Z,102441.63
2023-04-02T21:52:28.111Z,102443.34
2023-04-02T21:54:55.956Z,102437.56
2023-04-02T21:57:24.008Z,102444.63
2023-04-02T21:59:51.896Z,102444.63
2023-04-02T22:02:19.812Z,102451.72
2023-04-02T22:04:49.224Z,102446.47
2023-04-02T22:07:17.103Z,102457.16
2023-04-02T22:09:45.041Z,102457.22
2023-04-02T22:12:13.631Z,102463.22
2023-04-02T22:14:41.493Z,102466.91
2023-04-02T22:17:09.423Z,102461.66
2023-04-02T22:19:37.369Z,102459.22
2023-04-02T22:22:06.581Z,102460.06
2023-04-02T22:24:34.634Z,102467.94
2023-04-02T22:27:02.581Z,102466.50
2023-04-02T22:29:30.503Z,102462.97
2023-04-02T22:31:58.397Z,102466.81
2023-04-02T22:34:26.241Z,102465.78
2023-04-02T22:36:54.071Z,102471.84
2023-04-02T22:39:23.343Z,102473.66
2023-04-02T22:41:51.201Z,102472.00
2023-04-02T22:44:19.092Z,102478.91
2023-04-02T22:46:47.168Z,102480.59
2023-04-02T22:49:19.133Z,102479.19
2023-04-02T22:51:47.475Z,102486.19
2023-04-02T22:54:15.854Z,102485.06
2023-04-02T22:56:45.123Z,102489.56
2023-04-02T22:59:13.156Z,102487.84
2023-04-02T23:01:41.811Z,102495.59
2023-04-02T23:04:09.849Z,102491.25
2023-04-02T23:06:37.727Z,102502.59
2023-04-02T23:09:05.535Z,102510.59
2023-04-02T23:11:33.450Z,102510.81
2023-04-02T23:14:02.828Z,102506.41
2023-04-02T23:16:31.091Z,102516.34
2023-04-02T23:18:59.541Z,102510.13
2023-04-02T23:21:28.074Z,102519.88
2023-04-02T23:23:56.232Z,102518.97
2023-04-02T23:26:26.023Z,102517.41
2023-04-02T23:28:53.932Z,102521.97
2023-04-02T23:31:24.120Z,102519.22
2023-04-02T23:33:52.734Z,102523.63
2023-04-02T23:36:23.073Z,102521.78
2023-04-02T23:38:54.952Z,102518.44
2023-04-02T23:41:24.077Z,102528.75
2023-04-02T23:43:52.023Z,102526.88
2023-04-02T23:46:20.534Z,102537.69
2023-04-02T23:48:51.983Z,102534.22
2023-04-02T23:51:20.481Z,102530.63
2023-04-02T23:53:48.612Z,102534.09
2023-04-02T23:56:16.633Z,102539.34
2023-04-02T23:58:44.612Z,102540.22
